CYEG/YEG METAR and TAF weather

Enter ICAO airport designator
Station Type Date Time Source
CYEG METAR 2019/11/22 01:00 UTC NOAA

CYEG 220100Z 17005KT 20SM FEW140 FEW250 M04/M05 A2979 RMK AC1CI1 AC TR CI TR SLP132


Station Type Date Time Source
CYEG Decoded METAR 2019/11/22 01:00 UTC NOAA

Edmonton International, Alta., Canada (CYEG) 53-18N 113-35W 723M
Nov 21, 2019 - 08:00 PM EST / 2019.11.22 0100 UTC
Wind: from the S (170 degrees) at 6 MPH (5 KT):0
Visibility: 20 mile(s):0
Sky conditions: mostly clear
Temperature: 24 F (-4 C)
Windchill: 17 F (-8 C):1
Dew Point: 23 F (-5 C)
Relative Humidity: 92%
Pressure (altimeter): 29.79 in. Hg (1008 hPa)
ob: CYEG 220100Z 17005KT 20SM FEW140 FEW250 M04/M05 A2979 RMK AC1CI1 AC TR CI TR SLP132
cycle: 1

Station Type Date Time Source
CYEG TAF 2019/11/21 21:40 UTC NOAA

TAF CYEG 212038Z 2121/2218 20005KT P6SM FEW250
BECMG 2210/2212 28005KT
FM221400 30008KT P6SM SCT060 BKN100
RMK NXT FCST BY 220000Z

Example: see airport list